Time;durP1;ratioP1;P1;durP2;ratioP2;P2;SDS_P1;SDS_P2;PMS_P1;PMS_P2;Temp;Humidity;BMP_temperature;BMP_pressure;BME280_temperature;BME280_humidity;BME280_pressure;Samples;Min_cycle;Max_cycle;Signal;HPM_P1;HPM_P2
2022/11/25 00:01:33;;;;;;;26.15;18.17;;;;;;;6.20;80.07;97404.16;10247166;28;20097;-57
2022/11/25 00:06:34;;;;;;;32.15;21.25;;;;;;;6.13;80.03;97402.38;10247426;28;20465;-57
2022/11/25 00:11:35;;;;;;;37.03;24.90;;;;;;;6.11;80.63;97410.06;10247417;28;20074;-57
2022/11/25 00:16:34;;;;;;;43.00;30.13;;;;;;;6.16;80.73;97410.13;10249543;28;20069;-56
2022/11/25 00:21:33;;;;;;;41.88;25.98;;;;;;;6.10;80.15;97415.22;10254578;28;20065;-57
2022/11/25 00:26:34;;;;;;;27.27;18.55;;;;;;;5.95;81.01;97424.50;10254281;28;20069;-57
2022/11/25 00:31:35;;;;;;;23.70;16.95;;;;;;;5.98;81.22;97429.69;10254407;28;20154;-57
2022/11/25 00:36:36;;;;;;;27.42;18.10;;;;;;;6.06;80.92;97416.03;10253205;28;20080;-57
2022/11/25 00:46:52;;;;;;;21.35;15.15;;;;;;;6.14;81.19;97417.84;10253671;28;20464;-57
2022/11/25 00:51:52;;;;;;;22.88;15.15;;;;;;;6.17;80.85;97419.59;10253652;28;20412;-57
2022/11/25 00:56:51;;;;;;;20.63;12.73;;;;;;;6.14;80.95;97420.44;10253204;28;20069;-57
2022/11/25 01:01:50;;;;;;;21.95;16.05;;;;;;;6.17;81.11;97425.59;10253571;28;20081;-57
2022/11/25 01:06:49;;;;;;;30.35;19.17;;;;;;;6.16;80.61;97425.59;10253171;28;20096;-57
2022/11/25 01:11:49;;;;;;;30.25;19.42;;;;;;;6.12;81.14;97431.56;10253222;28;20097;-57
2022/11/25 01:16:49;;;;;;;25.17;18.83;;;;;;;6.03;80.84;97434.91;10252802;28;20074;-57
2022/11/25 01:21:48;;;;;;;61.92;32.92;;;;;;;5.79;81.59;97432.00;10252590;28;20068;-57
2022/11/25 01:26:47;;;;;;;33.53;22.48;;;;;;;5.60;84.37;97452.34;10251805;28;20471;-57
2022/11/25 01:31:47;;;;;;;33.38;23.83;;;;;;;5.35;85.35;97458.88;10252509;28;20074;-57
2022/11/25 01:36:46;;;;;;;42.55;27.55;;;;;;;5.29;85.73;97456.22;10251771;28;20062;-57
2022/11/25 01:41:45;;;;;;;;;;;;;;;5.32;85.92;97451.09;10267273;28;20070;-57
2022/11/25 01:47:22;;;;;;;38.03;25.13;;;;;;;5.39;85.81;97444.34;10251318;28;19952;-57
2022/11/25 01:52:28;;;;;;;30.40;22.05;;;;;;;5.38;86.64;97420.31;10201647;28;20113;-57
2022/11/25 01:57:36;;;;;;;33.40;21.65;;;;;;;5.42;86.26;97424.69;10251459;28;20081;-57
2022/11/25 02:02:35;;;;;;;29.50;20.40;;;;;;;5.52;86.46;97413.66;10251077;28;20086;-57
2022/11/25 02:07:37;;;;;;;26.30;18.30;;;;;;;5.60;86.12;97425.75;10250561;28;20062;-57
2022/11/25 02:12:39;;;;;;;21.35;15.48;;;;;;;5.64;84.97;97422.38;10250313;28;20483;-57
2022/11/25 02:17:38;;;;;;;18.17;13.82;;;;;;;5.65;84.47;97421.53;10250434;28;20065;-57
2022/11/25 02:22:55;;;;;;;26.52;19.30;;;;;;;5.59;84.56;97419.75;10250082;28;20065;-57
2022/11/25 02:28:00;;;;;;;25.27;17.40;;;;;;;5.62;83.88;97413.78;10250397;28;20074;-57
2022/11/25 02:33:00;;;;;;;23.23;15.43;;;;;;;5.59;84.25;97413.75;10250244;28;20081;-57
2022/11/25 02:38:04;;;;;;;24.00;15.88;;;;;;;5.60;84.27;97410.31;10249465;28;20065;-57
2022/11/25 02:43:03;;;;;;;23.95;15.90;;;;;;;5.68;83.59;97411.28;10249082;28;20077;-57
2022/11/25 02:48:02;;;;;;;28.85;19.52;;;;;;;5.65;83.58;97413.81;10250068;28;20081;-57
2022/11/25 02:53:02;;;;;;;26.90;18.08;;;;;;;5.56;82.88;97414.56;10248737;28;20070;-57
2022/11/25 02:58:01;;;;;;;30.58;18.83;;;;;;;5.53;83.07;97420.56;10249285;28;20074;-57
2022/11/25 03:03:00;;;;;;;30.45;21.02;;;;;;;5.53;83.05;97415.41;10249145;28;20085;-57
2022/11/25 03:07:59;;;;;;;;;;;;;;;5.59;82.93;97418.91;10249442;28;20069;-57
2022/11/25 03:12:58;;;;;;;23.85;16.77;;;;;;;5.59;82.75;97426.63;10248678;28;19914;-56
2022/11/25 03:17:57;;;;;;;28.58;19.38;;;;;;;5.56;82.78;97432.59;10248939;28;20053;-56
2022/11/25 03:22:56;;;;;;;29.25;19.33;;;;;;;5.54;83.00;97442.84;10248815;28;20039;-56
2022/11/25 03:27:55;;;;;;;31.90;21.83;;;;;;;5.52;83.06;97434.25;10249393;28;20050;-56
2022/11/25 03:32:54;;;;;;;33.58;22.73;;;;;;;5.54;83.19;97455.72;10248364;28;20076;-56
2022/11/25 03:37:54;;;;;;;30.48;20.60;;;;;;;5.50;83.05;97453.09;10247681;28;20065;-56
2022/11/25 03:42:53;;;;;;;;;;;;;;;5.34;83.97;97462.28;10248648;28;20542;-56
2022/11/25 03:47:52;;;;;;;35.60;23.73;;;;;;;5.30;83.58;97468.25;10247883;28;19914;-56
2022/11/25 03:52:50;;;;;;;31.52;21.85;;;;;;;5.22;83.97;97480.13;10251082;28;20109;-56
2022/11/25 03:57:49;;;;;;;32.80;23.30;;;;;;;5.19;84.48;97473.22;10255370;28;20110;-56
2022/11/25 04:02:48;;;;;;;32.97;22.95;;;;;;;5.13;84.67;97479.13;10255073;28;20061;-56
2022/11/25 04:07:47;;;;;;;34.40;24.23;;;;;;;5.03;84.99;97490.09;10254964;28;20145;-56
2022/11/25 04:12:46;;;;;;;35.20;23.45;;;;;;;5.03;85.08;97497.81;10255251;28;20030;-56
2022/11/25 04:17:45;;;;;;;39.35;25.63;;;;;;;4.99;85.24;97505.44;10254990;28;20073;-56
2022/11/25 04:22:44;;;;;;;33.53;24.42;;;;;;;4.95;85.40;97506.22;10254843;28;20027;-56
2022/11/25 04:27:43;;;;;;;36.38;25.33;;;;;;;4.87;85.29;97516.34;10255635;28;20054;-56
2022/11/25 04:32:42;;;;;;;44.90;29.15;;;;;;;4.70;85.76;97529.78;10255205;28;20080;-56
2022/11/25 04:37:41;;;;;;;46.28;30.92;;;;;;;4.58;86.01;97528.69;10253690;28;20030;-57
2022/11/25 04:42:40;;;;;;;54.55;35.10;;;;;;;4.40;86.60;97527.50;10254443;28;20072;-57
2022/11/25 04:47:40;;;;;;;49.08;30.08;;;;;;;4.25;86.96;97528.06;10254623;28;20050;-55
2022/11/25 04:52:39;;;;;;;54.90;33.30;;;;;;;4.11;87.33;97536.31;10253508;28;20484;-56
2022/11/25 04:57:38;;;;;;;62.55;37.70;;;;;;;3.86;88.76;97549.47;10253292;28;20598;-56
2022/11/25 05:02:37;;;;;;;58.70;35.45;;;;;;;3.77;89.24;97554.41;10253085;28;20059;-56
2022/11/25 05:07:37;;;;;;;48.38;30.20;;;;;;;3.71;88.93;97551.72;10252899;28;20061;-56
2022/11/25 05:12:36;;;;;;;54.75;32.17;;;;;;;3.73;89.05;97568.03;10253232;28;20070;-57
2022/11/25 05:17:35;;;;;;;;;;;;;;;3.73;89.88;97579.97;10253666;28;20516;-57
2022/11/25 05:22:34;;;;;;;50.90;31.38;;;;;;;3.72;90.66;97589.38;10252322;28;19965;-57
2022/11/25 05:27:33;;;;;;;67.30;39.47;;;;;;;3.71;91.07;97592.78;10253037;28;20078;-57
2022/11/25 05:32:32;;;;;;;40.38;25.55;;;;;;;3.73;91.06;97597.94;10251714;28;20034;-57
2022/11/25 05:37:31;;;;;;;36.78;23.92;;;;;;;3.89;90.67;97624.84;10251375;28;20500;-57
2022/11/25 05:42:30;;;;;;;38.13;22.90;;;;;;;3.71;91.98;97621.00;10249676;28;20034;-57
2022/11/25 05:47:29;;;;;;;39.25;26.15;;;;;;;3.80;91.71;97628.94;10251450;28;20425;-57
2022/11/25 05:52:28;;;;;;;48.40;28.33;;;;;;;3.77;92.00;97633.13;10248551;28;20143;-57
2022/11/25 05:57:28;;;;;;;53.17;36.95;;;;;;;3.77;92.10;97639.09;10250948;28;20107;-57
2022/11/25 06:02:26;;;;;;;;;;;;;;;3.92;91.81;97655.72;10249637;28;20504;-57
2022/11/25 06:07:25;;;;;;;96.20;58.47;;;;;;;4.05;91.70;97653.44;10250813;28;20457;-57
2022/11/25 06:12:24;;;;;;;115.63;66.25;;;;;;;4.20;91.48;97659.78;10250235;28;20102;-57
2022/11/25 06:17:23;;;;;;;101.65;62.05;;;;;;;4.36;91.39;97671.25;10249304;28;20552;-57
2022/11/25 06:22:22;;;;;;;91.93;50.10;;;;;;;4.40;90.89;97673.06;10249753;28;20080;-57
2022/11/25 06:27:22;;;;;;;46.78;30.17;;;;;;;4.48;89.82;97684.41;10251500;28;20138;-57
2022/11/25 06:32:21;;;;;;;48.10;30.35;;;;;;;4.53;88.91;97703.34;10248453;28;20030;-57
2022/11/25 06:37:20;;;;;;;44.15;26.08;;;;;;;4.62;88.15;97698.41;10244572;28;20062;-57
2022/11/25 06:42:19;;;;;;;47.33;31.02;;;;;;;4.78;87.43;97701.28;10247853;28;20088;-57
2022/11/25 06:47:18;;;;;;;54.88;32.30;;;;;;;4.97;86.91;97703.44;10246942;28;20034;-58
2022/11/25 06:52:17;;;;;;;59.25;35.75;;;;;;;5.13;87.11;97713.22;10247817;28;20026;-57
2022/11/25 06:57:17;;;;;;;98.35;67.00;;;;;;;5.23;86.42;97719.41;10249574;28;20034;-57
2022/11/25 07:02:16;;;;;;;64.90;40.15;;;;;;;5.36;86.55;97727.34;10249091;28;20492;-57
2022/11/25 07:07:15;;;;;;;62.50;40.28;;;;;;;5.49;86.74;97737.91;10249515;28;20667;-57
2022/11/25 07:12:14;;;;;;;66.53;38.72;;;;;;;5.62;86.13;97733.81;10248125;28;20134;-57
2022/11/25 07:17:13;;;;;;;59.13;38.70;;;;;;;5.79;86.60;97747.03;10249062;28;20058;-57
2022/11/25 07:22:12;;;;;;;61.53;44.42;;;;;;;5.92;85.91;97746.38;10248826;28;20046;-57
2022/11/25 07:27:11;;;;;;;61.13;41.50;;;;;;;6.04;84.90;97742.28;10252669;28;20034;-57
2022/11/25 07:32:10;;;;;;;64.32;41.15;;;;;;;6.08;82.93;97747.50;10257102;28;20186;-57
2022/11/25 07:37:09;;;;;;;59.78;39.47;;;;;;;6.19;82.44;97758.00;10257612;28;20093;-57
2022/11/25 07:42:08;;;;;;;54.88;35.00;;;;;;;6.34;81.48;97760.81;10259223;28;20026;-57
2022/11/25 07:47:08;;;;;;;66.93;40.35;;;;;;;6.56;80.25;97758.56;10259210;28;20130;-57
2022/11/25 07:52:08;;;;;;;59.55;39.67;;;;;;;6.77;79.51;97758.91;10258579;28;20080;-58
2022/11/25 07:57:07;;;;;;;66.03;42.55;;;;;;;6.91;77.37;97760.78;10258825;28;20061;-58
2022/11/25 08:02:08;;;;;;;73.70;47.92;;;;;;;7.03;76.02;97771.28;10258431;28;20078;-56
2022/11/25 08:07:09;;;;;;;74.18;47.55;;;;;;;7.13;75.79;97782.59;10258621;28;20066;-56
2022/11/25 08:12:08;;;;;;;63.45;42.38;;;;;;;7.15;76.46;97791.22;10258584;28;20727;-56
2022/11/25 08:17:07;;;;;;;61.13;41.15;;;;;;;7.22;75.63;97780.97;10258392;28;20726;-56
2022/11/25 08:22:06;;;;;;;56.10;39.88;;;;;;;7.46;74.68;97779.59;10258197;28;20066;-56
2022/11/25 08:27:05;;;;;;;72.97;41.65;;;;;;;7.54;73.46;97780.50;10258046;28;20097;-56
2022/11/25 08:32:06;;;;;;;58.95;38.42;;;;;;;7.61;73.67;97792.66;10257825;28;20100;-57
2022/11/25 08:37:05;;;;;;;39.92;25.50;;;;;;;7.66;72.70;97797.88;10256738;28;20073;-57
2022/11/25 08:42:05;;;;;;;32.22;17.70;;;;;;;7.61;71.56;97792.66;10257447;28;20030;-57
2022/11/25 08:47:04;;;;;;;37.05;22.58;;;;;;;7.66;72.39;97796.19;10257156;28;20066;-57
2022/11/25 08:52:03;;;;;;;38.03;21.30;;;;;;;7.71;71.74;97791.06;10252536;28;20124;-57
2022/11/25 08:57:02;;;;;;;31.73;20.45;;;;;;;7.74;70.37;97782.47;10253843;28;20782;-57
2022/11/25 09:02:01;;;;;;;32.13;20.42;;;;;;;7.70;70.10;97781.56;10253522;28;20077;-57
2022/11/25 09:07:03;;;;;;;29.88;17.00;;;;;;;7.62;68.64;97793.53;10254464;28;21286;-57
2022/11/25 09:12:02;;;;;;;22.88;15.40;;;;;;;7.67;67.65;97784.13;10248954;28;20070;-57
2022/11/25 09:17:02;;;;;;;22.38;14.15;;;;;;;7.81;66.65;97797.19;10254291;28;20074;-57
2022/11/25 09:22:01;;;;;;;11.43;6.35;;;;;;;7.86;62.05;97787.75;10253240;28;20078;-57
2022/11/25 09:27:00;;;;;;;9.38;5.40;;;;;;;7.91;59.65;97786.09;10253335;28;20037;-57
2022/11/25 09:31:59;;;;;;;6.00;3.50;;;;;;;8.03;55.58;97775.84;10253006;28;20578;-57
2022/11/25 09:36:58;;;;;;;8.48;3.97;;;;;;;8.18;55.65;97769.13;10252942;28;20645;-57
2022/11/25 09:47:54;;;;;;;6.57;2.78;;;;;;;8.37;53.22;97765.84;10252254;28;20066;-57
2022/11/25 09:53:08;;;;;;;5.38;2.75;;;;;;;8.49;51.98;97767.63;10251952;28;20062;-57
2022/11/25 09:58:29;;;;;;;4.53;3.00;;;;;;;8.72;53.14;97767.81;10215020;28;20640;-57
2022/11/25 10:03:34;;;;;;;6.10;3.20;;;;;;;8.92;52.48;97765.31;10229344;28;20082;-57
2022/11/25 10:08:46;;;;;;;4.97;2.55;;;;;;;9.01;49.13;97767.09;10253982;28;20065;-57
2022/11/25 10:14:01;;;;;;;2.55;1.70;;;;;;;8.97;47.75;97755.84;10253361;28;20535;-57
2022/11/25 10:19:07;;;;;;;6.40;3.13;;;;;;;9.23;48.56;97749.94;10253475;28;20073;-55
2022/11/25 10:24:13;;;;;;;2.70;1.88;;;;;;;9.27;47.33;97744.78;10253583;28;20073;-55
2022/11/25 10:29:12;;;;;;;2.33;1.80;;;;;;;9.38;47.32;97744.00;10252872;28;20516;-56
2022/11/25 10:34:28;;;;;;;5.13;3.15;;;;;;;9.50;46.99;97739.72;10252976;28;20026;-56
2022/11/25 10:39:32;;;;;;;3.45;2.35;;;;;;;9.54;46.97;97732.84;10252932;28;20081;-57
2022/11/25 10:44:34;;;;;;;2.40;1.67;;;;;;;9.74;45.30;97722.50;10251468;28;20074;-56
2022/11/25 10:50:03;;;;;;;4.60;2.83;;;;;;;10.05;44.85;97727.72;10248253;28;20058;-56
2022/11/25 10:55:12;;;;;;;7.05;4.45;;;;;;;10.58;44.72;97713.88;10250061;28;20062;-56
2022/11/25 11:00:33;;;;;;;3.47;1.67;;;;;;;10.83;43.04;97714.69;10249540;28;20062;-62
2022/11/25 11:05:32;;;;;;;5.10;2.85;;;;;;;11.19;42.90;97713.72;10242597;28;20220;-57
2022/11/25 11:10:31;;;;;;;3.85;2.03;;;;;;;11.23;43.55;97718.03;10249224;28;20081;-56
2022/11/25 11:15:38;;;;;;;3.60;2.25;;;;;;;10.99;42.87;97719.00;10248888;28;20031;-57
2022/11/25 11:20:45;;;;;;;4.72;2.33;;;;;;;10.94;43.75;97731.13;10248429;28;20108;-57
2022/11/25 11:26:19;;;;;;;5.80;3.05;;;;;;;10.68;44.41;97727.69;10248171;28;20118;-56
2022/11/25 11:31:25;;;;;;;5.50;2.80;;;;;;;10.51;45.17;97727.72;10245547;28;20074;-57
2022/11/25 11:36:33;;;;;;;5.55;2.50;;;;;;;10.41;45.68;97739.84;10248803;28;20065;-56
2022/11/25 11:41:38;;;;;;;3.92;2.50;;;;;;;10.30;45.43;97738.97;10248699;28;20073;-56
2022/11/25 11:46:49;;;;;;;4.43;2.67;;;;;;;10.12;45.69;97740.72;10249159;28;20465;-56
2022/11/25 11:52:00;;;;;;;7.10;3.42;;;;;;;10.00;45.86;97748.44;10250957;28;20491;-57
2022/11/25 11:57:05;;;;;;;6.13;3.63;;;;;;;9.99;46.34;97729.44;10250591;28;20520;-57
2022/11/25 12:02:22;;;;;;;7.78;4.82;;;;;;;10.19;45.83;97737.25;10250783;28;20505;-58
2022/11/25 12:07:51;;;;;;;12.32;4.82;;;;;;;10.27;45.40;97738.97;10250426;28;20077;-57
2022/11/25 12:13:05;;;;;;;5.03;3.10;;;;;;;10.35;44.69;97742.41;10252086;28;20069;-56
2022/11/25 12:18:31;;;;;;;8.05;5.13;;;;;;;10.43;44.67;97740.69;10258233;28;20066;-57
2022/11/25 12:24:02;;;;;;;3.60;2.30;;;;;;;10.40;45.13;97741.56;10258009;28;20069;-57
2022/11/25 12:29:07;;;;;;;6.28;3.53;;;;;;;10.27;44.93;97749.34;10257686;28;20077;-57
2022/11/25 12:34:35;;;;;;;5.75;3.20;;;;;;;10.23;45.08;97747.63;10256900;28;20757;-58
2022/11/25 12:40:10;;;;;;;8.00;4.55;;;;;;;10.05;45.52;97749.34;10257038;28;20068;-57
2022/11/25 12:45:21;;;;;;;7.72;4.85;;;;;;;10.06;45.97;97752.81;10254763;28;20151;-57
2022/11/25 12:50:55;;;;;;;7.00;4.50;;;;;;;9.86;45.97;97747.56;10256594;28;20540;-57
2022/11/25 12:55:57;;;;;;;17.10;9.45;;;;;;;9.86;46.11;97753.63;10256335;28;20057;-57
2022/11/25 13:01:11;;;;;;;8.48;4.47;;;;;;;9.97;45.47;97753.66;10256184;28;20085;-58
2022/11/25 13:06:38;;;;;;;9.50;5.80;;;;;;;9.81;46.26;97754.47;10256069;28;20058;-57
2022/11/25 13:11:50;;;;;;;7.95;4.22;;;;;;;9.93;46.34;97746.72;10253898;28;20074;-57
2022/11/25 13:16:49;;;;;;;8.45;4.38;;;;;;;9.97;45.88;97759.69;10253085;28;20069;-58
2022/11/25 13:22:17;;;;;;;8.45;4.70;;;;;;;10.01;45.41;97750.19;10252487;28;20109;-57
2022/11/25 13:27:30;;;;;;;8.45;4.32;;;;;;;10.06;45.95;97757.97;10248996;28;20125;-58
2022/11/25 13:32:35;;;;;;;5.85;3.38;;;;;;;9.92;45.41;97757.97;10254756;28;20092;-57
2022/11/25 13:37:38;;;;;;;10.27;5.80;;;;;;;9.71;46.17;97754.47;10252861;28;20074;-57
2022/11/25 13:42:43;;;;;;;8.90;5.13;;;;;;;9.66;45.96;97756.19;10251545;28;20096;-57
2022/11/25 13:47:47;;;;;;;13.70;9.73;;;;;;;9.59;46.66;97764.78;10248624;28;20151;-58
2022/11/25 13:52:57;;;;;;;15.48;9.27;;;;;;;9.60;45.98;97773.44;10249660;28;20064;-58
2022/11/25 13:58:13;;;;;;;18.17;10.85;;;;;;;9.52;46.86;97770.81;10250076;28;20074;-57
2022/11/25 14:03:18;;;;;;;19.27;12.02;;;;;;;9.37;47.07;97773.34;10251250;28;20093;-57
2022/11/25 14:08:29;;;;;;;17.45;11.43;;;;;;;9.18;47.43;97786.16;10251284;28;20074;-58
2022/11/25 14:13:59;;;;;;;18.13;10.68;;;;;;;9.15;48.19;97786.16;10251250;28;20069;-58
2022/11/25 14:19:06;;;;;;;29.25;17.55;;;;;;;9.02;47.77;97786.94;10250586;28;20069;-57
2022/11/25 14:24:10;;;;;;;21.88;13.35;;;;;;;8.91;47.50;97805.88;10249559;28;20080;-58
2022/11/25 14:29:40;;;;;;;24.02;13.15;;;;;;;8.74;47.94;97807.50;10245421;28;20469;-58
2022/11/25 14:34:45;;;;;;;24.55;14.85;;;;;;;8.59;48.06;97812.53;10242592;28;20598;-57
2022/11/25 14:40:12;;;;;;;18.05;10.90;;;;;;;8.48;47.82;97822.78;10247052;28;20070;-57
2022/11/25 14:45:28;;;;;;;15.32;10.15;;;;;;;8.29;47.42;97835.59;10248307;28;20101;-57
2022/11/25 14:50:27;;;;;;;15.32;8.80;;;;;;;8.14;46.96;97835.41;10249900;28;20074;-57
2022/11/25 14:55:30;;;;;;;12.75;7.95;;;;;;;7.96;46.33;97841.25;10250139;28;20081;-57
2022/11/25 15:00:29;;;;;;;12.98;6.90;;;;;;;7.76;47.36;97837.59;10265446;28;20078;-58
2022/11/25 15:05:34;;;;;;;14.68;8.85;;;;;;;7.51;46.80;97831.28;10250580;28;20077;-58
2022/11/25 15:10:39;;;;;;;13.65;8.35;;;;;;;7.33;47.19;97847.34;10250477;28;20073;-57
2022/11/25 15:15:38;;;;;;;10.02;6.03;;;;;;;7.02;48.19;97854.69;10250108;28;20057;-57
2022/11/25 15:20:37;;;;;;;13.40;8.13;;;;;;;6.87;48.63;97862.19;10249658;28;20074;-58
2022/11/25 15:25:48;;;;;;;15.77;10.02;;;;;;;6.84;48.87;97860.41;10249736;28;20065;-58
2022/11/25 15:30:58;;;;;;;12.43;7.80;;;;;;;6.69;49.53;97863.63;10251076;28;20070;-58
2022/11/25 15:35:57;;;;;;;11.05;6.85;;;;;;;6.69;48.94;97868.78;10250854;28;20073;-57
2022/11/25 15:40:56;;;;;;;8.95;5.60;;;;;;;6.61;49.18;97871.25;10251292;28;20023;-56
2022/11/25 15:46:01;;;;;;;19.90;14.43;;;;;;;6.71;49.52;97882.56;10251771;28;20070;-56
2022/11/25 15:51:04;;;;;;;48.13;33.67;;;;;;;6.67;50.50;97885.94;10259515;28;20092;-56
2022/11/25 15:56:06;;;;;;;23.40;16.23;;;;;;;6.57;50.78;97896.97;10259737;28;20058;-56
2022/11/25 16:01:14;;;;;;;20.08;13.57;;;;;;;6.38;51.38;97898.34;10254584;28;20787;-57
2022/11/25 16:06:23;;;;;;;22.27;14.55;;;;;;;6.29;51.64;97904.19;10257380;28;20123;-57
2022/11/25 16:11:24;;;;;;;33.50;19.00;;;;;;;6.17;51.97;97911.72;10258373;28;20752;-57
2022/11/25 16:16:28;;;;;;;41.42;23.63;;;;;;;6.07;52.84;97920.06;10259380;28;20065;-57
2022/11/25 16:21:38;;;;;;;23.10;14.13;;;;;;;5.83;53.80;97928.19;10223131;28;20085;-58
2022/11/25 16:26:56;;;;;;;21.10;13.23;;;;;;;5.90;53.54;97928.34;10219214;28;20198;-58
2022/11/25 16:31:56;;;;;;;24.33;16.20;;;;;;;5.84;54.29;97924.81;10218737;28;20062;-58
2022/11/25 16:36:55;;;;;;;37.17;19.20;;;;;;;5.75;54.23;97933.19;10218290;28;20055;-57
2022/11/25 16:42:02;;;;;;;40.42;26.13;;;;;;;5.65;54.69;97938.97;10215854;28;20043;-57
2022/11/25 16:47:02;;;;;;;51.65;33.60;;;;;;;5.58;55.36;97952.53;10215138;28;20096;-57
2022/11/25 16:52:01;;;;;;;;;;;;;;;5.40;56.84;97950.44;10215821;28;20475;-57
2022/11/25 16:56:59;;;;;;;53.08;31.58;;;;;;;5.22;57.29;97956.03;10244376;28;20394;-56
2022/11/25 17:02:00;;;;;;;44.30;29.15;;;;;;;5.06;57.98;97965.09;10249678;28;20512;-56
2022/11/25 17:06:59;;;;;;;58.10;34.22;;;;;;;4.93;58.45;97969.91;10248514;28;20069;-58
2022/11/25 17:11:58;;;;;;;47.65;29.75;;;;;;;4.81;59.42;97976.47;10249657;28;20034;-57
2022/11/25 17:16:58;;;;;;;37.67;23.45;;;;;;;4.65;59.98;97981.19;10266344;28;20031;-56
2022/11/25 17:21:57;;;;;;;36.67;22.70;;;;;;;4.53;60.48;97985.16;10253824;28;20069;-57
2022/11/25 17:27:04;;;;;;;29.45;15.43;;;;;;;4.43;60.73;97976.31;10253918;28;20081;-58
2022/11/25 17:32:03;;;;;;;38.33;23.75;;;;;;;4.32;62.24;97976.03;10253625;28;20335;-58
2022/11/25 17:37:03;;;;;;;40.95;25.33;;;;;;;4.26;63.25;97983.56;10253596;28;20437;-57
2022/11/25 17:42:03;;;;;;;44.45;27.15;;;;;;;4.16;64.08;97994.44;10253103;28;20069;-57
2022/11/25 17:47:10;;;;;;;35.38;20.70;;;;;;;4.05;64.42;98004.38;10252903;28;20083;-57
2022/11/25 17:52:09;;;;;;;42.70;24.17;;;;;;;3.96;64.63;98001.53;10252810;28;20468;-57
2022/11/25 17:57:14;;;;;;;37.92;20.30;;;;;;;3.81;64.98;98002.84;10252444;28;20432;-57
2022/11/25 18:02:18;;;;;;;31.25;19.27;;;;;;;3.80;65.52;98016.53;10252804;28;20093;-57
2022/11/25 18:07:17;;;;;;;30.67;18.77;;;;;;;3.74;65.43;98006.06;10252344;28;20169;-57
2022/11/25 18:12:26;;;;;;;34.25;20.48;;;;;;;3.72;65.43;98028.22;10252476;28;20042;-57
2022/11/25 18:17:25;;;;;;;44.65;25.92;;;;;;;3.64;66.38;98029.72;10252443;28;20065;-57
2022/11/25 18:22:24;;;;;;;38.17;22.92;;;;;;;3.59;66.27;98027.00;10252044;28;20037;-57
2022/11/25 18:27:27;;;;;;;31.88;19.13;;;;;;;3.53;67.03;98031.94;10251360;28;20070;-57
2022/11/25 18:32:26;;;;;;;42.75;27.58;;;;;;;3.44;67.86;98035.06;10250614;28;20062;-57
2022/11/25 18:37:25;;;;;;;47.75;28.08;;;;;;;3.36;68.08;98039.09;10251343;28;20052;-57
2022/11/25 18:42:26;;;;;;;92.68;49.15;;;;;;;3.28;68.63;98034.53;10251571;28;20076;-57
2022/11/25 18:47:25;;;;;;;98.95;57.75;;;;;;;3.18;68.85;98033.38;10250722;28;20492;-57
2022/11/25 18:52:24;;;;;;;86.75;48.35;;;;;;;3.16;69.24;98035.03;10249959;28;20484;-58
2022/11/25 18:57:23;;;;;;;35.10;21.60;;;;;;;3.07;69.69;98045.84;10250291;28;20041;-56
2022/11/25 19:02:21;;;;;;;36.40;21.45;;;;;;;2.98;69.87;98051.56;10250166;28;20054;-56
2022/11/25 19:07:20;;;;;;;27.00;17.63;;;;;;;2.95;70.43;98059.13;10250263;28;20034;-58
2022/11/25 19:12:19;;;;;;;39.88;20.05;;;;;;;2.87;70.21;98062.25;10249899;28;20423;-56
2022/11/25 19:17:23;;;;;;;38.28;23.55;;;;;;;2.82;70.88;98064.66;10250138;28;20040;-57
2022/11/25 19:22:23;;;;;;;74.15;41.13;;;;;;;2.68;72.23;98071.88;10250142;28;20082;-57
2022/11/25 19:27:23;;;;;;;74.07;45.80;;;;;;;2.57;72.30;98079.16;10250061;28;20082;-57
2022/11/25 19:32:26;;;;;;;61.28;36.13;;;;;;;2.50;72.39;98086.59;10229332;28;20547;-57
2022/11/25 19:37:28;;;;;;;127.82;77.15;;;;;;;2.39;73.45;98091.31;10244139;28;20481;-57
2022/11/25 19:42:30;;;;;;;124.85;78.68;;;;;;;2.22;74.66;98106.06;10216741;28;20086;-58
2022/11/25 19:47:29;;;;;;;115.55;74.68;;;;;;;2.03;75.67;98091.69;10245761;28;20082;-58
2022/11/25 19:52:36;;;;;;;75.95;46.13;;;;;;;1.90;76.47;98095.50;10249856;28;20078;-58
2022/11/25 19:57:35;;;;;;;97.15;60.40;;;;;;;1.83;76.42;98098.59;10249762;28;20069;-55
2022/11/25 20:02:35;;;;;;;110.47;65.82;;;;;;;1.78;76.79;98107.78;10249779;28;20046;-56
2022/11/25 20:07:35;;;;;;;89.95;59.30;;;;;;;1.71;77.27;98111.78;10249305;28;20069;-56
2022/11/25 20:12:33;;;;;;;90.28;59.17;;;;;;;1.65;77.04;98119.22;10248941;28;20070;-56
2022/11/25 20:17:35;;;;;;;80.78;54.53;;;;;;;1.60;77.43;98119.84;10249161;28;20026;-56
2022/11/25 20:22:38;;;;;;;102.07;68.38;;;;;;;1.56;78.12;98123.13;10249075;28;20076;-56
2022/11/25 20:27:37;;;;;;;95.20;60.08;;;;;;;1.49;78.14;98132.22;10249415;28;20521;-57
2022/11/25 20:32:37;;;;;;;104.05;66.80;;;;;;;1.42;78.87;98132.78;10247326;28;20504;-56
2022/11/25 20:37:59;;;;;;;114.90;73.68;;;;;;;1.37;78.77;98142.81;10256508;28;20066;-57
2022/11/25 20:42:57;;;;;;;116.22;73.15;;;;;;;1.38;78.82;98147.09;10255080;28;20081;-56
2022/11/25 20:47:57;;;;;;;104.43;63.20;;;;;;;1.31;79.85;98147.66;10254685;28;20089;-57
2022/11/25 20:52:56;;;;;;;59.75;36.60;;;;;;;1.26;79.61;98155.16;10255940;28;20074;-58
2022/11/25 20:57:55;;;;;;;77.47;46.55;;;;;;;1.21;79.79;98151.53;10254990;28;20065;-57
2022/11/25 21:02:56;;;;;;;65.85;38.58;;;;;;;1.19;79.99;98171.03;10254000;28;20046;-57
2022/11/25 21:07:55;;;;;;;59.83;36.80;;;;;;;1.13;80.13;98170.78;10254324;28;20073;-58
2022/11/25 21:12:55;;;;;;;79.25;47.53;;;;;;;1.07;80.43;98156.06;10254908;28;20074;-58
2022/11/25 21:17:54;;;;;;;92.30;54.47;;;;;;;1.01;80.90;98162.56;10254058;28;20524;-57
2022/11/25 21:22:56;;;;;;;81.45;48.55;;;;;;;0.96;81.11;98174.28;10254134;28;20073;-57
2022/11/25 21:27:55;;;;;;;97.68;58.60;;;;;;;0.90;81.70;98192.78;10254242;28;20077;-57
2022/11/25 21:32:59;;;;;;;157.70;83.75;;;;;;;0.81;83.13;98212.81;10253708;28;20030;-57
2022/11/25 21:38:02;;;;;;;72.60;40.17;;;;;;;0.66;83.54;98207.88;10253757;28;20062;-57
2022/11/25 21:43:02;;;;;;;54.28;33.70;;;;;;;0.51;83.21;98210.63;10253282;28;20069;-56
2022/11/25 21:48:01;;;;;;;59.97;35.10;;;;;;;0.35;83.64;98221.81;10252653;28;20069;-58
2022/11/25 21:53:01;;;;;;;65.05;38.85;;;;;;;0.16;84.41;98220.06;10253265;28;20157;-58
2022/11/25 21:58:00;;;;;;;80.75;47.08;;;;;;;0.14;84.34;98238.66;10253757;28;20072;-58
2022/11/25 22:02:59;;;;;;;79.68;47.05;;;;;;;0.10;84.38;98234.22;10252802;28;20085;-58
2022/11/25 22:07:58;;;;;;;79.30;45.90;;;;;;;0.10;84.11;98227.47;10252270;28;20044;-55
2022/11/25 22:12:57;;;;;;;74.28;42.75;;;;;;;0.01;84.13;98235.53;10252219;28;20070;-56
2022/11/25 22:17:57;;;;;;;94.65;51.92;;;;;;;-0.03;85.33;98242.97;10252573;28;20090;-56
2022/11/25 22:22:56;;;;;;;64.28;38.40;;;;;;;-0.02;85.13;98242.16;10251700;28;20535;-56
2022/11/25 22:27:55;;;;;;;53.58;31.92;;;;;;;-0.01;84.86;98226.06;10251609;28;20536;-56
2022/11/25 22:33:01;;;;;;;50.72;28.92;;;;;;;-0.07;84.71;98228.31;10251263;28;20069;-57
2022/11/25 22:38:01;;;;;;;48.80;30.30;;;;;;;-0.01;84.87;98236.28;10251251;28;20061;-57
2022/11/25 22:43:00;;;;;;;59.67;33.53;;;;;;;-0.02;84.84;98235.41;10250835;28;20074;-57
2022/11/25 22:48:03;;;;;;;54.60;31.80;;;;;;;-0.04;85.30;98243.75;10251168;28;20082;-57
2022/11/25 22:53:11;;;;;;;56.58;32.47;;;;;;;-0.03;85.77;98242.97;10251402;28;20074;-57
2022/11/25 22:58:12;;;;;;;56.65;35.40;;;;;;;-0.03;85.52;98251.50;10250176;28;20069;-57
2022/11/25 23:03:24;;;;;;;63.55;37.03;;;;;;;-0.07;85.66;98254.69;10250248;28;20503;-57
2022/11/25 23:08:25;;;;;;;64.63;38.45;;;;;;;-0.16;87.01;98262.78;10250468;28;20157;-58
2022/11/25 23:13:25;;;;;;;69.97;41.00;;;;;;;-0.20;87.42;98260.88;10250283;28;20504;-58
2022/11/25 23:18:26;;;;;;;67.93;38.92;;;;;;;-0.24;87.62;98261.53;10250436;28;20066;-58
2022/11/25 23:23:27;;;;;;;63.97;37.50;;;;;;;-0.30;87.32;98268.00;10250647;28;20066;-58
2022/11/25 23:28:26;;;;;;;64.85;35.78;;;;;;;-0.35;88.22;98254.13;10249824;28;20077;-58